Time;durP1;ratioP1;P1;durP2;ratioP2;P2;SDS_P1;SDS_P2;PMS_P1;PMS_P2;Temp;Humidity;BMP_temperature;BMP_pressure;BME280_temperature;BME280_humidity;BME280_pressure;Samples;Min_cycle;Max_cycle;Signal;HPM_P1;HPM_P2
2023/04/15 00:01:51;;;;;;;20.00;8.05;;;5.30;99.90;;;;;;7596808;19;20018;-72
2023/04/15 00:04:23;;;;;;;12.73;7.60;;;5.20;99.90;;;;;;7601092;19;20111;-72
2023/04/15 00:06:56;;;;;;;41.78;18.25;;;5.30;99.90;;;;;;7580035;19;20055;-72
2023/04/15 00:09:28;;;;;;;31.17;13.27;;;5.20;99.90;;;;;;7595101;19;20046;-72
2023/04/15 00:12:00;;;;;;;18.25;8.18;;;5.10;99.90;;;;;;7588063;19;20117;-72
2023/04/15 00:14:37;;;;;;;17.55;6.97;;;5.20;99.90;;;;;;7593840;19;20064;-73
2023/04/15 00:17:09;;;;;;;13.57;6.38;;;5.20;99.90;;;;;;7590460;19;20047;-73
2023/04/15 00:19:43;;;;;;;12.63;6.15;;;5.20;99.90;;;;;;7590074;19;20022;-72
2023/04/15 00:22:16;;;;;;;11.90;6.40;;;5.20;99.90;;;;;;7593663;19;20022;-72
2023/04/15 00:24:48;;;;;;;16.98;7.15;;;5.20;99.90;;;;;;7587524;19;20129;-72
2023/04/15 00:27:20;;;;;;;17.17;7.30;;;5.20;99.90;;;;;;7572044;19;20018;-72
2023/04/15 00:29:52;;;;;;;16.58;7.30;;;5.20;99.90;;;;;;7545171;19;20019;-72
2023/04/15 00:32:24;;;;;;;10.90;7.35;;;5.20;99.90;;;;;;7559452;19;20022;-72
2023/04/15 00:34:57;;;;;;;18.17;8.20;;;5.20;99.90;;;;;;7545140;19;20030;-73
2023/04/15 00:37:30;;;;;;;13.32;7.10;;;5.20;99.90;;;;;;7566155;19;20022;-72
2023/04/15 00:40:05;;;;;;;17.50;8.32;;;5.10;99.90;;;;;;7555456;19;20131;-72
2023/04/15 00:42:37;;;;;;;22.90;8.43;;;5.10;99.90;;;;;;7559011;19;20625;-74
2023/04/15 00:45:11;;;;;;;16.33;7.72;;;5.10;99.90;;;;;;7569685;19;20010;-73
2023/04/15 00:47:43;;;;;;;16.10;7.17;;;5.10;99.90;;;;;;7556168;19;20022;-72
2023/04/15 00:50:16;;;;;;;16.80;7.07;;;5.10;99.90;;;;;;7565810;19;20055;-75
2023/04/15 00:52:48;;;;;;;16.25;7.80;;;5.20;99.90;;;;;;7567852;19;21324;-72
2023/04/15 00:55:21;;;;;;;17.37;8.50;;;5.20;99.90;;;;;;7561454;19;20015;-73
2023/04/15 00:57:53;;;;;;;13.75;7.03;;;5.20;99.90;;;;;;7574332;19;20026;-70
2023/04/15 01:00:26;;;;;;;10.15;6.97;;;5.10;99.90;;;;;;7582188;19;20024;-73
2023/04/15 01:02:58;;;;;;;23.55;8.30;;;5.20;99.90;;;;;;7581076;19;20041;-72
2023/04/15 01:05:33;;;;;;;11.32;6.60;;;5.10;99.90;;;;;;7581774;19;20022;-72
2023/04/15 01:08:05;;;;;;;19.10;7.28;;;5.20;99.90;;;;;;7587818;19;21105;-73
2023/04/15 01:10:38;;;;;;;17.65;8.13;;;5.20;99.90;;;;;;7590210;19;20047;-72
2023/04/15 01:13:11;;;;;;;14.27;6.57;;;5.20;99.90;;;;;;7585334;19;20021;-73
2023/04/15 01:15:44;;;;;;;11.63;6.15;;;5.30;99.90;;;;;;7592631;19;20722;-73
2023/04/15 01:18:18;;;;;;;15.43;7.65;;;5.30;99.90;;;;;;7586687;19;20037;-72
2023/04/15 01:20:50;;;;;;;23.80;10.77;;;5.20;99.90;;;;;;7586097;19;20023;-72
2023/04/15 01:23:23;;;;;;;14.80;8.15;;;5.20;99.90;;;;;;7583725;19;20014;-72
2023/04/15 01:25:57;;;;;;;18.80;8.00;;;5.20;99.90;;;;;;7577699;19;20406;-72
2023/04/15 01:28:30;;;;;;;18.08;8.68;;;5.20;99.90;;;;;;7579152;19;20022;-72
2023/04/15 01:31:10;;;;;;;;;;;5.20;99.90;;;;;;7578312;19;20019;-73
2023/04/15 01:33:42;;;;;;;15.80;8.07;;;5.20;99.90;;;;;;7589260;19;19950;-73
2023/04/15 01:36:33;;;;;;;22.42;8.20;;;5.20;99.90;;;;;;7596562;19;20447;-73
2023/04/15 01:39:06;;;;;;;13.93;7.97;;;5.10;99.90;;;;;;7599637;19;20090;-73
2023/04/15 01:41:39;;;;;;;15.40;8.77;;;5.10;99.90;;;;;;7590776;19;21226;-73
2023/04/15 01:44:11;;;;;;;15.32;8.50;;;5.10;99.90;;;;;;7593580;19;20015;-73
2023/04/15 01:46:44;;;;;;;14.98;7.63;;;5.10;99.90;;;;;;7590044;19;20620;-72
2023/04/15 01:49:17;;;;;;;19.65;8.40;;;5.20;99.90;;;;;;7593030;19;20014;-73
2023/04/15 01:51:49;;;;;;;18.10;7.60;;;5.10;99.90;;;;;;7591630;19;20023;-73
2023/04/15 01:54:22;;;;;;;17.88;8.05;;;5.20;99.90;;;;;;7585721;19;20549;-73
2023/04/15 01:56:55;;;;;;;;;;;5.20;99.90;;;;;;7577301;19;20022;-72
2023/04/15 01:59:30;;;;;;;17.77;8.63;;;5.20;99.90;;;;;;7573733;19;19911;-73
2023/04/15 02:02:04;;;;;;;19.88;8.55;;;5.20;99.90;;;;;;7563728;19;20113;-72
2023/04/15 02:04:37;;;;;;;21.30;8.55;;;5.20;99.90;;;;;;7562682;19;20023;-72
2023/04/15 02:07:09;;;;;;;18.58;7.95;;;5.20;99.90;;;;;;7567200;19;20183;-72
2023/04/15 02:09:42;;;;;;;15.90;8.27;;;5.20;99.90;;;;;;7565554;19;20569;-72
2023/04/15 02:12:14;;;;;;;11.43;7.25;;;5.30;99.90;;;;;;7565170;19;20028;-72
2023/04/15 02:14:46;;;;;;;19.92;7.90;;;5.30;99.90;;;;;;7568165;19;20078;-74
2023/04/15 02:17:20;;;;;;;20.77;8.00;;;5.30;99.90;;;;;;7567618;19;20015;-71
2023/04/15 02:19:52;;;;;;;15.10;7.22;;;5.30;99.90;;;;;;7583002;19;20481;-72
2023/04/15 02:22:24;;;;;;;12.07;6.50;;;5.30;99.90;;;;;;7578689;19;20022;-72
2023/04/15 02:24:56;;;;;;;17.83;8.55;;;5.30;99.90;;;;;;7570454;19;20021;-72
2023/04/15 02:27:29;;;;;;;12.02;7.00;;;5.30;99.90;;;;;;7576194;19;20024;-73
2023/04/15 02:30:02;;;;;;;15.82;7.32;;;5.30;99.90;;;;;;7578478;19;20025;-72
2023/04/15 02:32:34;;;;;;;14.07;7.57;;;5.30;99.90;;;;;;7575278;19;20018;-73
2023/04/15 02:35:07;;;;;;;21.08;8.15;;;5.20;99.90;;;;;;7568267;19;21215;-71
2023/04/15 02:37:42;;;;;;;16.42;8.02;;;5.20;99.90;;;;;;7584205;19;20018;-72
2023/04/15 02:40:15;;;;;;;19.55;8.63;;;5.10;99.90;;;;;;7565073;19;20668;-72
2023/04/15 02:42:49;;;;;;;22.63;9.30;;;5.00;99.90;;;;;;7578843;19;20019;-73
2023/04/15 02:45:26;;;;;;;21.08;8.80;;;5.00;99.90;;;;;;7572063;19;20549;-72
2023/04/15 02:48:00;;;;;;;16.02;8.10;;;5.10;99.90;;;;;;7577119;19;20027;-73
2023/04/15 02:50:32;;;;;;;19.23;8.25;;;5.10;99.90;;;;;;7587146;19;20032;-73
2023/04/15 02:53:05;;;;;;;18.63;8.05;;;5.10;99.90;;;;;;7556310;19;20156;-73
2023/04/15 02:55:37;;;;;;;24.15;9.07;;;5.10;99.90;;;;;;7576084;19;20093;-73
2023/04/15 02:58:10;;;;;;;15.98;7.22;;;5.10;99.90;;;;;;7575212;19;20018;-73
2023/04/15 03:00:42;;;;;;;15.23;7.50;;;5.10;99.90;;;;;;7574627;19;20014;-73
2023/04/15 03:03:15;;;;;;;15.15;7.57;;;5.10;99.90;;;;;;7567506;19;20025;-73
2023/04/15 03:05:47;;;;;;;17.87;7.83;;;5.10;99.90;;;;;;7540211;19;20022;-73
2023/04/15 03:08:20;;;;;;;18.55;8.10;;;5.10;99.90;;;;;;7512694;19;20279;-74
2023/04/15 03:10:53;;;;;;;16.25;8.43;;;5.10;99.90;;;;;;7557328;19;20078;-74
2023/04/15 03:13:26;;;;;;;20.05;9.00;;;5.10;99.90;;;;;;7566300;19;20019;-73
2023/04/15 03:16:00;;;;;;;15.25;7.60;;;5.20;99.90;;;;;;7557280;19;20027;-74
2023/04/15 03:18:35;;;;;;;15.68;7.82;;;5.20;99.90;;;;;;7570642;19;20121;-73
2023/04/15 03:21:09;;;;;;;17.90;8.30;;;5.20;99.90;;;;;;7518786;19;20359;-73
2023/04/15 03:23:42;;;;;;;17.02;8.82;;;5.20;99.90;;;;;;7530672;19;20123;-73
2023/04/15 03:26:29;;;;;;;22.02;9.77;;;5.20;99.90;;;;;;7546974;19;20027;-73
2023/04/15 03:29:09;;;;;;;19.83;8.80;;;5.30;99.90;;;;;;7571231;19;20995;-73
2023/04/15 03:31:43;;;;;;;16.95;8.88;;;5.20;99.90;;;;;;7578649;19;20029;-73
2023/04/15 03:34:15;;;;;;;17.73;7.82;;;5.20;99.90;;;;;;7556349;19;20052;-73
2023/04/15 03:36:48;;;;;;;15.88;7.95;;;5.20;99.90;;;;;;7534223;19;20020;-72
2023/04/15 03:39:20;;;;;;;14.90;8.07;;;5.20;99.90;;;;;;7526341;19;20524;-73
2023/04/15 03:41:52;;;;;;;14.43;7.82;;;5.10;99.90;;;;;;7524909;19;20021;-73
2023/04/15 03:44:27;;;;;;;14.48;7.93;;;5.20;99.90;;;;;;7522249;19;20037;-74
2023/04/15 03:47:00;;;;;;;18.80;7.75;;;5.20;99.90;;;;;;7540141;19;20018;-72
2023/04/15 03:49:32;;;;;;;16.98;8.05;;;5.20;99.90;;;;;;7552924;19;20015;-73
2023/04/15 03:52:05;;;;;;;17.13;8.25;;;5.30;99.90;;;;;;7554877;19;20006;-73
2023/04/15 03:54:37;;;;;;;16.70;8.25;;;5.30;99.90;;;;;;7550914;19;22776;-75
2023/04/15 03:57:10;;;;;;;18.48;9.20;;;5.30;99.90;;;;;;7523659;19;20022;-73
2023/04/15 03:59:42;;;;;;;18.38;8.18;;;5.20;99.90;;;;;;7565926;19;20029;-74
2023/04/15 04:02:15;;;;;;;15.83;8.30;;;5.20;99.90;;;;;;7575966;19;20037;-74
2023/04/15 04:04:47;;;;;;;15.52;8.02;;;5.30;99.90;;;;;;7578003;19;20018;-74
2023/04/15 04:07:22;;;;;;;15.55;8.00;;;5.30;99.90;;;;;;7564678;19;20022;-73
2023/04/15 04:09:55;;;;;;;17.25;9.00;;;5.30;99.90;;;;;;7582592;19;20976;-73
2023/04/15 04:12:27;;;;;;;16.60;8.75;;;5.30;99.90;;;;;;7576845;19;20014;-73
2023/04/15 04:14:59;;;;;;;19.40;9.10;;;5.30;99.90;;;;;;7561680;19;20030;-73
2023/04/15 04:17:32;;;;;;;12.82;7.80;;;5.30;99.90;;;;;;7564953;19;20030;-73
2023/04/15 04:20:06;;;;;;;18.83;6.65;;;5.30;99.90;;;;;;7579344;19;20022;-74
2023/04/15 04:22:40;;;;;;;11.75;7.00;;;5.30;99.90;;;;;;7577952;19;20010;-73
2023/04/15 04:25:13;;;;;;;16.27;7.75;;;5.30;99.90;;;;;;7566404;19;20021;-73
2023/04/15 04:27:45;;;;;;;12.57;6.85;;;5.40;99.90;;;;;;7581088;19;20015;-73
2023/04/15 04:30:18;;;;;;;17.27;6.93;;;5.40;99.90;;;;;;7580968;19;20542;-74
2023/04/15 04:32:50;;;;;;;18.45;7.97;;;5.30;99.90;;;;;;7576954;19;20011;-73
2023/04/15 04:35:22;;;;;;;14.95;7.30;;;5.30;99.90;;;;;;7573156;19;20811;-73
2023/04/15 04:37:55;;;;;;;13.30;6.00;;;5.40;99.90;;;;;;7579094;19;20022;-74
2023/04/15 04:40:27;;;;;;;14.27;7.47;;;5.40;99.90;;;;;;7571522;19;20752;-72
2023/04/15 04:43:00;;;;;;;20.15;8.15;;;5.30;99.90;;;;;;7565528;19;20019;-73
2023/04/15 04:45:33;;;;;;;16.00;8.02;;;5.30;99.90;;;;;;7538302;19;20449;-73
2023/04/15 04:48:07;;;;;;;18.77;7.63;;;5.30;99.90;;;;;;7544008;19;20010;-73
2023/04/15 04:50:40;;;;;;;13.70;6.53;;;5.30;99.90;;;;;;7544259;19;20021;-73
2023/04/15 04:53:12;;;;;;;13.57;6.80;;;5.30;99.90;;;;;;7539336;19;20029;-73
2023/04/15 04:55:44;;;;;;;10.57;6.13;;;5.30;99.90;;;;;;7540825;19;20014;-73
2023/04/15 04:58:16;;;;;;;17.45;8.35;;;5.30;99.90;;;;;;7548046;19;20010;-74
2023/04/15 05:00:49;;;;;;;20.58;9.68;;;5.30;99.90;;;;;;7530279;19;20014;-74
2023/04/15 05:03:22;;;;;;;19.55;9.68;;;5.20;99.90;;;;;;7547277;19;20556;-73
2023/04/15 05:05:54;;;;;;;17.15;6.90;;;5.30;99.90;;;;;;7538828;19;20014;-74
2023/04/15 05:08:27;;;;;;;13.77;6.93;;;5.30;99.90;;;;;;7548678;19;20029;-74
2023/04/15 05:10:59;;;;;;;15.05;7.00;;;5.20;99.90;;;;;;7530627;19;22190;-74
2023/04/15 05:13:31;;;;;;;12.75;5.07;;;5.20;99.90;;;;;;7542801;19;20494;-74
2023/04/15 05:16:05;;;;;;;14.48;5.45;;;5.30;99.90;;;;;;7538604;19;20014;-73
2023/04/15 05:18:37;;;;;;;8.02;5.25;;;5.30;99.90;;;;;;7549755;19;20600;-74
2023/04/15 05:21:10;;;;;;;10.80;5.65;;;5.30;99.90;;;;;;7542627;19;20973;-73
2023/04/15 05:23:42;;;;;;;18.87;5.40;;;5.30;99.90;;;;;;7538250;19;20015;-74
2023/04/15 05:26:14;;;;;;;11.05;5.53;;;5.30;99.90;;;;;;7528852;19;20025;-74
2023/04/15 05:28:47;;;;;;;14.00;5.40;;;5.30;99.90;;;;;;7528066;19;20014;-72
2023/04/15 05:31:19;;;;;;;13.68;8.77;;;5.30;99.90;;;;;;7522648;19;20038;-72
2023/04/15 05:33:52;;;;;;;11.15;5.30;;;5.40;99.90;;;;;;7524872;19;20018;-73
2023/04/15 05:36:24;;;;;;;8.73;4.40;;;5.40;99.90;;;;;;7530760;19;20015;-73
2023/04/15 05:38:57;;;;;;;12.35;5.05;;;5.30;99.90;;;;;;7545890;19;20189;-73
2023/04/15 05:41:29;;;;;;;12.25;4.97;;;5.40;99.90;;;;;;7534224;19;20011;-73
2023/04/15 05:44:01;;;;;;;9.98;4.72;;;5.30;99.90;;;;;;7541863;19;20015;-73
2023/04/15 05:46:34;;;;;;;14.45;4.88;;;5.40;99.90;;;;;;7530681;19;20019;-73
2023/04/15 05:49:06;;;;;;;13.38;4.63;;;5.40;99.90;;;;;;7541801;19;20067;-73
2023/04/15 05:51:38;;;;;;;9.77;4.45;;;5.40;99.90;;;;;;7523929;19;20014;-73
2023/04/15 05:54:10;;;;;;;9.63;4.00;;;5.40;99.90;;;;;;7544439;19;20018;-73
2023/04/15 05:56:43;;;;;;;10.30;4.47;;;5.40;99.90;;;;;;7526658;19;20021;-73
2023/04/15 05:59:15;;;;;;;15.02;5.75;;;5.40;99.90;;;;;;7539825;19;20389;-73
2023/04/15 06:01:48;;;;;;;18.02;6.60;;;5.30;99.90;;;;;;7544142;19;20017;-73
2023/04/15 06:04:21;;;;;;;20.23;7.50;;;5.40;99.90;;;;;;7541031;19;20621;-73
2023/04/15 06:06:53;;;;;;;22.45;7.05;;;5.40;99.90;;;;;;7552396;19;21216;-73
2023/04/15 06:09:26;;;;;;;19.42;6.03;;;5.50;99.90;;;;;;7544732;19;20018;-73
2023/04/15 06:11:58;;;;;;;27.23;9.82;;;5.50;99.90;;;;;;7546429;19;20022;-73
2023/04/15 06:14:30;;;;;;;24.75;9.43;;;5.50;99.90;;;;;;7524129;19;20011;-73
2023/04/15 06:17:03;;;;;;;19.15;6.60;;;5.60;99.90;;;;;;7535088;19;20064;-74
2023/04/15 06:19:35;;;;;;;22.38;7.30;;;5.60;99.90;;;;;;7527630;19;20060;-73
2023/04/15 06:22:08;;;;;;;18.83;7.15;;;5.60;99.90;;;;;;7543379;19;20030;-73
2023/04/15 06:24:40;;;;;;;23.42;8.05;;;5.50;99.90;;;;;;7533161;19;20056;-73
2023/04/15 06:27:12;;;;;;;18.25;6.40;;;5.60;99.90;;;;;;7537551;19;20014;-73
2023/04/15 06:29:45;;;;;;;14.50;4.22;;;5.70;99.90;;;;;;7540237;19;20026;-73
2023/04/15 06:32:17;;;;;;;7.57;3.55;;;5.80;99.90;;;;;;7561862;19;20021;-73
2023/04/15 06:34:50;;;;;;;14.95;5.88;;;5.80;99.90;;;;;;7542661;19;20015;-73
2023/04/15 06:37:22;;;;;;;21.77;8.43;;;5.90;99.90;;;;;;7542333;19;20019;-73
2023/04/15 06:39:55;;;;;;;10.25;5.00;;;5.90;99.90;;;;;;7535777;19;20014;-73
2023/04/15 06:42:27;;;;;;;8.10;4.30;;;5.90;99.90;;;;;;7528392;19;20094;-73
2023/04/15 06:45:00;;;;;;;8.45;3.05;;;5.90;99.90;;;;;;7524500;19;20015;-73
2023/04/15 06:47:33;;;;;;;7.28;3.47;;;6.00;99.90;;;;;;7542266;19;22225;-73
2023/04/15 06:50:05;;;;;;;8.55;4.05;;;6.00;99.90;;;;;;7569337;19;20018;-72
2023/04/15 06:52:37;;;;;;;8.40;3.42;;;6.10;99.90;;;;;;7541534;19;20018;-73
2023/04/15 06:55:10;;;;;;;6.32;3.10;;;6.20;99.90;;;;;;7533712;19;20022;-73
2023/04/15 06:57:42;;;;;;;6.00;3.42;;;6.30;99.90;;;;;;7545531;19;20016;-73
2023/04/15 07:00:15;;;;;;;6.53;2.75;;;6.40;99.90;;;;;;7559948;19;20966;-73
2023/04/15 07:02:47;;;;;;;13.32;2.90;;;6.40;99.90;;;;;;7541897;19;20097;-73
2023/04/15 07:05:20;;;;;;;7.53;3.05;;;6.50;99.90;;;;;;7563520;19;20550;-72
2023/04/15 07:07:52;;;;;;;6.37;2.57;;;6.50;99.90;;;;;;7557332;19;20604;-73
2023/04/15 07:10:25;;;;;;;6.75;2.67;;;6.70;99.90;;;;;;7545709;19;20022;-72
2023/04/15 07:12:57;;;;;;;8.18;2.70;;;6.80;99.90;;;;;;7529711;19;20018;-73
2023/04/15 07:15:29;;;;;;;10.93;2.53;;;6.80;99.90;;;;;;7537644;19;20015;-74
2023/04/15 07:18:02;;;;;;;6.07;2.72;;;6.80;99.90;;;;;;7551160;19;20023;-74
2023/04/15 07:20:34;;;;;;;8.25;2.70;;;6.80;99.90;;;;;;7545425;19;20015;-73
2023/04/15 07:23:07;;;;;;;10.93;2.80;;;6.90;99.90;;;;;;7544682;19;20532;-73
2023/04/15 07:25:40;;;;;;;7.28;3.50;;;7.00;99.90;;;;;;7534409;19;20021;-73
2023/04/15 07:28:12;;;;;;;7.75;2.83;;;7.10;99.90;;;;;;7560062;19;20010;-72
2023/04/15 07:30:44;;;;;;;5.80;2.47;;;7.20;99.90;;;;;;7542659;19;20917;-73
2023/04/15 07:33:17;;;;;;;6.00;2.60;;;7.30;99.90;;;;;;7569036;19;20137;-72
2023/04/15 07:35:49;;;;;;;11.95;2.65;;;7.30;99.90;;;;;;7570351;19;20063;-72
2023/04/15 07:38:22;;;;;;;6.50;2.35;;;7.50;99.90;;;;;;7511069;19;20674;-71
2023/04/15 07:40:54;;;;;;;6.50;2.45;;;7.50;99.90;;;;;;7525264;19;20022;-71
2023/04/15 07:43:26;;;;;;;9.85;3.30;;;7.60;99.90;;;;;;7545321;19;20022;-71
2023/04/15 07:45:59;;;;;;;7.15;3.00;;;7.60;99.90;;;;;;7530227;19;20045;-71
2023/04/15 07:48:31;;;;;;;6.72;2.90;;;7.70;99.90;;;;;;7503029;19;22726;-71
2023/04/15 07:51:05;;;;;;;;;;;7.80;99.90;;;;;;7510438;19;20022;-72
2023/04/15 07:53:37;;;;;;;9.02;2.80;;;7.90;99.90;;;;;;7552819;19;21103;-71
2023/04/15 07:56:10;;;;;;;7.95;2.97;;;8.00;99.90;;;;;;7522696;19;20014;-71
2023/04/15 07:58:42;;;;;;;9.52;2.95;;;8.00;99.90;;;;;;7552115;19;20010;-71
2023/04/15 08:01:15;;;;;;;8.00;2.78;;;8.10;99.90;;;;;;7525268;19;20018;-70
2023/04/15 08:03:47;;;;;;;6.17;3.30;;;8.20;99.90;;;;;;7555391;19;20006;-71
2023/04/15 08:06:20;;;;;;;6.75;2.90;;;8.30;99.90;;;;;;7526955;19;21548;-71
2023/04/15 08:08:53;;;;;;;5.28;3.35;;;8.40;99.90;;;;;;7512193;19;20014;-71
2023/04/15 08:11:26;;;;;;;10.85;3.05;;;8.60;99.90;;;;;;7531129;19;20041;-72
2023/04/15 08:13:58;;;;;;;5.22;2.65;;;8.50;99.90;;;;;;7562906;19;20011;-71
2023/04/15 08:16:31;;;;;;;6.95;3.08;;;8.60;99.90;;;;;;7559473;19;20011;-72
2023/04/15 08:19:04;;;;;;;10.57;3.13;;;8.60;99.90;;;;;;7559494;19;20018;-71
2023/04/15 08:21:36;;;;;;;8.93;3.55;;;8.60;99.90;;;;;;7552719;19;20121;-72
2023/04/15 08:24:10;;;;;;;5.75;2.70;;;8.70;99.90;;;;;;7557899;19;20015;-72
2023/04/15 08:26:42;;;;;;;6.68;2.92;;;8.70;99.90;;;;;;7496750;19;20376;-72
2023/04/15 08:29:14;;;;;;;5.68;2.67;;;8.80;99.90;;;;;;7507034;19;20477;-72
2023/04/15 08:31:47;;;;;;;5.10;3.00;;;8.90;98.10;;;;;;7497284;19;20019;-71
2023/04/15 08:34:19;;;;;;;6.40;2.95;;;9.00;98.20;;;;;;7512035;19;20015;-70
2023/04/15 08:36:51;;;;;;;8.15;3.00;;;9.00;95.30;;;;;;7514149;19;20025;-72
2023/04/15 08:39:24;;;;;;;5.30;3.10;;;9.20;97.20;;;;;;7545250;19;20029;-71
2023/04/15 08:42:06;;;;;;;7.35;3.20;;;9.20;96.00;;;;;;7543206;19;20803;-71
2023/04/15 08:44:39;;;;;;;6.55;3.10;;;9.20;95.60;;;;;;7509521;19;20964;-71
2023/04/15 08:47:16;;;;;;;8.13;3.15;;;9.20;96.50;;;;;;7557888;19;20026;-72
2023/04/15 08:49:52;;;;;;;7.78;3.50;;;9.10;94.30;;;;;;7521511;19;21442;-71
2023/04/15 08:52:29;;;;;;;10.40;3.75;;;9.00;93.40;;;;;;7571662;19;20026;-70
2023/04/15 08:55:03;;;;;;;6.20;3.65;;;9.00;93.00;;;;;;7559198;19;20023;-72
2023/04/15 08:57:36;;;;;;;8.45;3.58;;;9.00;94.10;;;;;;7560496;19;20026;-72
2023/04/15 09:00:09;;;;;;;6.40;3.67;;;9.00;93.20;;;;;;7556277;19;20018;-71
2023/04/15 09:02:42;;;;;;;6.85;3.20;;;9.00;94.00;;;;;;7548310;19;21708;-72
2023/04/15 09:05:15;;;;;;;6.55;3.15;;;9.10;94.80;;;;;;7566676;19;20022;-72
2023/04/15 09:07:49;;;;;;;10.10;3.50;;;9.20;94.60;;;;;;7564672;19;20866;-72
2023/04/15 09:10:22;;;;;;;7.82;3.05;;;9.20;94.70;;;;;;7584047;19;20014;-72
2023/04/15 09:12:55;;;;;;;8.60;3.40;;;9.20;92.80;;;;;;7570311;19;20026;-73
2023/04/15 09:15:28;;;;;;;11.18;3.53;;;9.30;96.20;;;;;;7553767;19;21010;-71
2023/04/15 09:18:01;;;;;;;6.88;4.10;;;9.40;95.60;;;;;;7570154;19;20041;-72
2023/04/15 09:20:41;;;;;;;10.65;3.60;;;9.40;93.30;;;;;;7546539;19;20576;-71
2023/04/15 09:23:14;;;;;;;8.07;3.55;;;9.40;92.90;;;;;;7570036;19;20021;-71
2023/04/15 09:25:48;;;;;;;5.95;3.38;;;9.40;92.50;;;;;;7546455;19;20297;-71
2023/04/15 09:28:27;;;;;;;;;;;9.50;91.90;;;;;;7590046;19;20054;-71
2023/04/15 09:31:01;;;;;;;9.68;4.05;;;9.50;91.20;;;;;;7590743;19;20830;-71
2023/04/15 09:33:33;;;;;;;;;;;9.50;91.30;;;;;;7570692;19;20097;-72
2023/04/15 09:36:06;;;;;;;7.95;3.38;;;9.50;91.90;;;;;;7586734;19;19981;-72
2023/04/15 09:38:55;;;;;;;6.75;3.50;;;9.50;90.40;;;;;;7593479;19;21343;-71
2023/04/15 09:41:28;;;;;;;7.70;3.88;;;9.60;94.00;;;;;;7535428;19;20014;-72
2023/04/15 09:44:00;;;;;;;9.88;4.68;;;9.60;93.00;;;;;;7505678;19;20021;-71
2023/04/15 09:46:45;;;;;;;10.60;3.73;;;9.50;92.20;;;;;;7517823;19;20060;-72
2023/04/15 09:49:19;;;;;;;9.25;4.10;;;9.50;93.30;;;;;;7514788;19;20136;-71
2023/04/15 09:52:00;;;;;;;9.05;4.45;;;9.50;92.90;;;;;;7523904;19;20101;-72
2023/04/15 09:54:37;;;;;;;9.38;4.55;;;9.50;91.50;;;;;;7545391;19;20018;-71
2023/04/15 09:57:11;;;;;;;10.97;5.20;;;9.50;91.30;;;;;;7526239;19;20025;-71
2023/04/15 09:59:43;;;;;;;10.77;4.68;;;9.50;92.30;;;;;;7519941;19;20279;-71
2023/04/15 10:02:18;;;;;;;8.85;4.88;;;9.40;92.50;;;;;;7539272;19;20517;-72
2023/04/15 10:04:51;;;;;;;12.75;4.40;;;9.40;93.00;;;;;;7508188;19;20022;-72
2023/04/15 10:07:24;;;;;;;7.83;4.60;;;9.30;93.00;;;;;;7542414;19;20501;-72
2023/04/15 10:10:02;;;;;;;9.68;4.93;;;9.30;93.50;;;;;;7540695;19;20532;-70
2023/04/15 10:12:39;;;;;;;8.90;5.30;;;9.40;95.80;;;;;;7549673;19;20912;-72
2023/04/15 10:15:16;;;;;;;10.23;6.53;;;9.30;93.10;;;;;;7557128;19;21089;-71
2023/04/15 10:17:52;;;;;;;10.80;5.93;;;9.20;92.20;;;;;;7550054;19;20111;-73
2023/04/15 10:20:25;;;;;;;9.23;5.93;;;9.10;92.20;;;;;;7535050;19;20030;-72
2023/04/15 10:22:57;;;;;;;11.73;5.70;;;9.20;93.80;;;;;;7556047;19;20621;-72
2023/04/15 10:25:32;;;;;;;8.73;5.33;;;9.10;93.40;;;;;;7546170;19;20006;-72
2023/04/15 10:28:07;;;;;;;62.17;24.35;;;9.20;93.70;;;;;;7527474;19;21288;-71
2023/04/15 10:30:39;;;;;;;10.48;5.78;;;9.30;93.70;;;;;;7516884;19;20019;-72
2023/04/15 10:33:13;;;;;;;12.00;7.22;;;9.30;93.00;;;;;;7506415;19;20010;-73
2023/04/15 10:35:47;;;;;;;14.07;6.53;;;9.40;92.90;;;;;;7524133;19;20037;-73
2023/04/15 10:38:36;;;;;;;15.27;8.77;;;9.40;91.50;;;;;;7543366;19;20024;-73
2023/04/15 10:41:14;;;;;;;13.48;6.88;;;9.40;90.50;;;;;;7553970;19;20149;-73
2023/04/15 10:43:58;;;;;;;10.80;6.13;;;9.40;90.40;;;;;;7536478;19;21485;-72
2023/04/15 10:46:39;;;;;;;11.20;6.15;;;9.40;90.40;;;;;;7475928;19;22412;-73
2023/04/15 10:49:16;;;;;;;11.32;6.05;;;9.40;90.10;;;;;;7514605;19;20026;-72
2023/04/15 10:51:57;;;;;;;13.50;6.32;;;9.40;91.20;;;;;;7548165;19;20017;-73
2023/04/15 10:54:29;;;;;;;11.98;6.30;;;9.50;91.00;;;;;;7521863;19;20029;-73
2023/04/15 10:57:05;;;;;;;14.48;6.07;;;9.50;90.70;;;;;;7525644;19;20059;-72
2023/04/15 10:59:58;;;;;;;10.48;5.93;;;9.50;89.90;;;;;;7543864;19;20006;-71
2023/04/15 11:02:44;;;;;;;13.00;6.27;;;9.60;90.20;;;;;;7534166;19;20102;-69
2023/04/15 11:05:17;;;;;;;10.68;6.03;;;9.60;89.90;;;;;;7559679;19;20015;-69
2023/04/15 11:07:53;;;;;;;9.40;5.65;;;9.70;91.00;;;;;;7522564;19;20018;-68
2023/04/15 11:10:28;;;;;;;13.02;6.07;;;9.80;90.50;;;;;;7543981;19;20394;-68
2023/04/15 11:13:10;;;;;;;8.90;5.72;;;9.80;90.50;;;;;;7513309;19;20130;-69
2023/04/15 11:15:46;;;;;;;15.10;5.63;;;9.80;89.00;;;;;;7564880;19;20531;-68
2023/04/15 11:18:24;;;;;;;13.85;6.60;;;9.80;88.90;;;;;;7557261;19;20082;-68
2023/04/15 11:21:02;;;;;;;14.50;6.25;;;9.90;90.80;;;;;;7527340;19;20018;-69
2023/04/15 11:23:42;;;;;;;13.55;6.82;;;9.90;87.20;;;;;;7497203;19;20920;-71
2023/04/15 11:26:15;;;;;;;13.50;6.53;;;9.90;89.50;;;;;;7554480;19;20139;-69
2023/04/15 11:28:48;;;;;;;12.18;7.03;;;9.90;90.00;;;;;;7536693;19;20026;-70
2023/04/15 11:31:22;;;;;;;12.48;6.97;;;10.00;88.30;;;;;;7532238;19;20509;-70
2023/04/15 11:34:00;;;;;;;11.15;5.97;;;10.00;86.60;;;;;;7543961;19;20921;-70
2023/04/15 11:36:33;;;;;;;11.05;6.25;;;10.00;85.00;;;;;;7551706;19;20729;-69
2023/04/15 11:39:06;;;;;;;14.60;6.57;;;10.00;86.50;;;;;;7527469;19;20043;-72
2023/04/15 11:41:42;;;;;;;13.38;6.40;;;9.90;84.60;;;;;;7539691;19;20010;-70
2023/04/15 11:44:18;;;;;;;12.68;6.10;;;9.90;86.10;;;;;;7538826;19;21208;-69
2023/04/15 11:46:50;;;;;;;16.77;6.93;;;9.70;83.50;;;;;;7513855;19;20022;-68
2023/04/15 11:49:30;;;;;;;12.07;6.80;;;9.60;88.40;;;;;;7550224;19;20018;-68
2023/04/15 11:52:10;;;;;;;12.77;6.57;;;9.50;90.10;;;;;;7551237;19;21001;-69
2023/04/15 11:54:42;;;;;;;9.20;6.10;;;9.40;90.30;;;;;;7556388;19;20575;-68
2023/04/15 11:57:15;;;;;;;13.57;7.27;;;9.40;91.00;;;;;;7530853;19;20042;-69
2023/04/15 11:59:47;;;;;;;11.98;6.78;;;9.30;90.60;;;;;;7549839;19;20394;-68
2023/04/15 12:02:20;;;;;;;13.05;7.55;;;9.40;91.00;;;;;;7555577;19;20014;-70
2023/04/15 12:05:03;;;;;;;17.08;6.93;;;9.30;92.00;;;;;;7531829;19;20045;-69
2023/04/15 12:07:57;;;;;;;13.63;6.90;;;9.30;91.20;;;;;;7551375;19;20303;-69
2023/04/15 12:10:31;;;;;;;14.65;7.03;;;9.30;91.40;;;;;;7541828;19;20055;-69
2023/04/15 12:13:05;;;;;;;;;;;9.30;91.90;;;;;;7543726;19;20722;-69
2023/04/15 12:15:38;;;;;;;15.07;7.40;;;9.40;93.40;;;;;;7555191;19;19918;-69
2023/04/15 12:18:17;;;;;;;10.80;6.80;;;9.30;94.00;;;;;;7559875;19;20955;-70
2023/04/15 12:20:49;;;;;;;17.92;7.50;;;9.30;93.10;;;;;;7567207;19;20022;-70
2023/04/15 12:23:22;;;;;;;17.15;8.45;;;9.30;92.60;;;;;;7539573;19;20025;-69
2023/04/15 12:25:54;;;;;;;12.77;7.22;;;9.30;92.60;;;;;;7544145;19;20069;-69
2023/04/15 12:28:29;;;;;;;16.70;7.85;;;9.30;91.90;;;;;;7527956;19;20767;-69
2023/04/15 12:31:09;;;;;;;11.45;6.55;;;9.30;91.20;;;;;;7532465;19;20043;-69
2023/04/15 12:33:42;;;;;;;15.65;7.65;;;9.30;91.00;;;;;;7560796;19;20106;-69
2023/04/15 12:36:15;;;;;;;17.00;7.25;;;9.30;92.10;;;;;;7560377;19;20019;-68
2023/04/15 12:38:47;;;;;;;12.05;6.95;;;9.40;91.70;;;;;;7527837;19;20014;-69
2023/04/15 12:41:21;;;;;;;13.20;6.88;;;9.40;91.60;;;;;;7520400;19;21223;-70
2023/04/15 12:43:53;;;;;;;16.30;6.95;;;9.40;91.80;;;;;;7542394;19;20549;-69
2023/04/15 12:46:27;;;;;;;10.80;6.53;;;9.40;90.20;;;;;;7555639;19;22831;-69
2023/04/15 12:49:00;;;;;;;15.35;6.63;;;9.50;91.40;;;;;;7564768;19;20081;-69
2023/04/15 12:51:32;;;;;;;13.10;6.77;;;9.40;89.40;;;;;;7550288;19;20950;-69
2023/04/15 12:54:05;;;;;;;11.35;6.63;;;9.40;89.50;;;;;;7552583;19;20022;-69
2023/04/15 12:56:38;;;;;;;14.68;7.35;;;9.50;89.00;;;;;;7517719;19;21149;-70
2023/04/15 12:59:11;;;;;;;15.65;7.50;;;9.50;89.40;;;;;;7589367;19;20561;-70
2023/04/15 13:01:44;;;;;;;;;;;9.50;90.00;;;;;;7591188;19;20035;-69
2023/04/15 13:04:16;;;;;;;13.60;7.05;;;9.50;87.50;;;;;;7565036;19;19930;-70
2023/04/15 13:06:49;;;;;;;12.57;6.85;;;9.40;86.00;;;;;;7579419;19;20029;-71
2023/04/15 13:09:21;;;;;;;12.82;6.43;;;9.50;89.90;;;;;;7584888;19;20025;-70
2023/04/15 13:11:54;;;;;;;11.10;5.78;;;9.50;86.00;;;;;;7563598;19;20109;-70
2023/04/15 13:14:27;;;;;;;18.60;5.97;;;9.40;87.00;;;;;;7595044;19;20007;-70
2023/04/15 13:17:01;;;;;;;10.73;6.38;;;9.50;88.90;;;;;;7591651;19;20014;-70
2023/04/15 13:19:35;;;;;;;11.23;6.40;;;9.50;86.60;;;;;;7600136;19;20880;-70
2023/04/15 13:22:08;;;;;;;10.15;6.43;;;9.50;88.80;;;;;;7600814;19;20022;-70
2023/04/15 13:24:40;;;;;;;12.23;6.97;;;9.50;88.10;;;;;;7601245;19;20045;-69